Time;durP1;ratioP1;P1;durP2;ratioP2;P2;SDS_P1;SDS_P2;PMS_P1;PMS_P2;Temp;Humidity;BMP_temperature;BMP_pressure;BME280_temperature;BME280_humidity;BME280_pressure;Samples;Min_cycle;Max_cycle;Signal;HPM_P1;HPM_P2
2023/07/20 00:01:59;;;;;;;;;;;16.10;99.90;;;;;;5135868;27;19907;-43
2023/07/20 00:04:25;;;;;;;;;;;16.10;99.90;;;;;;5135827;27;19907;-45
2023/07/20 00:06:50;;;;;;;;;;;16.00;99.90;;;;;;5135031;27;19907;-46
2023/07/20 00:09:16;;;;;;;;;;;16.00;99.90;;;;;;5145974;27;19911;-46
2023/07/20 00:11:47;;;;;;;;;;;16.00;99.90;;;;;;5155735;27;19911;-43
2023/07/20 00:14:13;;;;;;;;;;;16.00;99.90;;;;;;5155604;27;19911;-45
2023/07/20 00:16:38;;;;;;;;;;;16.00;99.90;;;;;;5156304;27;19914;-43
2023/07/20 00:19:06;;;;;;;;;;;16.00;99.90;;;;;;5156320;27;19937;-45
2023/07/20 00:21:32;;;;;;;;;;;16.00;99.90;;;;;;5155552;27;19960;-44
2023/07/20 00:23:57;;;;;;;;;;;16.00;99.90;;;;;;5156234;27;19907;-44
2023/07/20 00:26:23;;;;;;;;;;;15.90;99.90;;;;;;5156180;27;20250;-45
2023/07/20 00:28:49;;;;;;;;;;;15.80;99.90;;;;;;5155413;27;20001;-44
2023/07/20 00:31:15;;;;;;;;;;;15.80;99.90;;;;;;5156023;27;19952;-44
2023/07/20 00:33:40;;;;;;;;;;;15.70;99.90;;;;;;5155585;27;19915;-44
2023/07/20 00:36:06;;;;;;;;;;;15.60;99.90;;;;;;5155361;27;19922;-44
2023/07/20 00:38:32;;;;;;;;;;;15.70;99.90;;;;;;5155901;27;19990;-45
2023/07/20 00:40:57;;;;;;;;;;;15.70;99.90;;;;;;5139159;27;20258;-43
2023/07/20 00:43:23;;;;;;;;;;;15.70;99.90;;;;;;5134260;27;19959;-44
2023/07/20 00:45:48;;;;;;;;;;;15.70;99.90;;;;;;5135144;27;19914;-45
2023/07/20 00:48:14;;;;;;;;;;;15.70;99.90;;;;;;5134923;27;20338;-44
2023/07/20 00:50:40;;;;;;;;;;;15.70;99.90;;;;;;5134363;27;19918;-46
2023/07/20 00:53:05;;;;;;;;;;;15.70;99.90;;;;;;5134842;27;19915;-44
2023/07/20 00:55:31;;;;;;;;;;;15.70;99.90;;;;;;5126150;27;19912;-44
2023/07/20 00:57:57;;;;;;;;;;;15.70;99.90;;;;;;5125995;27;20282;-43
2023/07/20 01:00:23;;;;;;;;;;;15.70;99.90;;;;;;5114233;28;19912;-44
2023/07/20 01:02:48;;;;;;;;;;;15.80;99.90;;;;;;5113392;28;19938;-46
2023/07/20 01:05:16;;;;;;;;;;;15.80;99.90;;;;;;5129275;27;19919;-45
2023/07/20 01:07:43;;;;;;;;;;;15.80;99.90;;;;;;5154891;27;20386;-44
2023/07/20 01:10:35;;;;;;;;;;;15.80;99.90;;;;;;5154408;27;20436;-45
2023/07/20 01:13:00;;;;;;;;;;;15.70;99.90;;;;;;5150028;27;19921;-44
2023/07/20 01:15:26;;;;;;;;;;;15.80;99.90;;;;;;5155225;27;20002;-45
2023/07/20 01:17:51;;;;;;;;;;;15.70;99.90;;;;;;5154400;27;19914;-44
2023/07/20 01:20:19;;;;;;;;;;;15.70;99.90;;;;;;5154733;27;19919;-44
2023/07/20 01:22:47;;;;;;;;;;;15.60;99.90;;;;;;5154095;27;19991;-44
2023/07/20 01:25:27;;;;;;;;;;;15.50;99.90;;;;;;5154211;27;19907;-43
2023/07/20 01:28:16;;;;;;;;;;;15.50;99.90;;;;;;5155027;27;19911;-44
2023/07/20 01:30:55;;;;;;;;;;;15.40;99.90;;;;;;5140036;27;19907;-47
2023/07/20 01:33:21;;;;;;;;;;;15.40;99.90;;;;;;5154724;27;19915;-44
2023/07/20 01:35:56;;;;;;;;;;;15.40;99.90;;;;;;5155090;27;19908;-45
2023/07/20 01:38:22;;;;;;;;;;;15.40;99.90;;;;;;5154018;27;19914;-45
2023/07/20 01:40:48;;;;;;;;;;;15.40;99.90;;;;;;5154612;27;19926;-44
2023/07/20 01:43:14;;;;;;;;;;;15.30;99.90;;;;;;5154921;27;19908;-44
2023/07/20 01:45:39;;;;;;;;;;;15.30;99.90;;;;;;5138562;27;19964;-45
2023/07/20 01:48:05;;;;;;;;;;;15.30;99.90;;;;;;5133883;27;19916;-43
2023/07/20 01:50:30;;;;;;;;;;;15.30;99.90;;;;;;5135024;27;19918;-44
2023/07/20 01:52:56;;;;;;;;;;;15.30;99.90;;;;;;5133032;27;19919;-45
2023/07/20 01:55:21;;;;;;;;;;;15.30;99.90;;;;;;5133805;27;19908;-44
2023/07/20 01:57:47;;;;;;;;;;;15.30;99.90;;;;;;5133816;27;19907;-46
2023/07/20 02:00:12;;;;;;;;;;;15.30;99.90;;;;;;5133059;27;20323;-45
2023/07/20 02:02:38;;;;;;;;;;;15.20;99.90;;;;;;5133905;28;19914;-44
2023/07/20 02:05:03;;;;;;;;;;;15.20;99.90;;;;;;5133798;28;20389;-44
2023/07/20 02:07:29;;;;;;;;;;;15.20;99.90;;;;;;5133024;28;20006;-44
2023/07/20 02:09:54;;;;;;;;;;;15.10;99.90;;;;;;5150983;27;19915;-44
2023/07/20 02:12:20;;;;;;;;;;;15.00;99.90;;;;;;5154261;27;19918;-44
2023/07/20 02:14:45;;;;;;;;;;;14.90;99.90;;;;;;5153694;27;19907;-44
2023/07/20 02:17:11;;;;;;;;;;;14.90;99.90;;;;;;5153906;27;19918;-45
2023/07/20 02:19:37;;;;;;;;;;;14.80;99.90;;;;;;5154454;27;19952;-45
2023/07/20 02:22:02;;;;;;;;;;;14.80;99.90;;;;;;5153553;27;20270;-43
2023/07/20 02:24:28;;;;;;;;;;;14.70;99.90;;;;;;5154377;27;20020;-44
2023/07/20 02:26:53;;;;;;;;;;;14.70;99.90;;;;;;5154231;27;19914;-45
2023/07/20 02:29:19;;;;;;;;;;;14.70;99.90;;;;;;5153580;27;19934;-45
2023/07/20 02:31:44;;;;;;;;;;;14.70;99.90;;;;;;5154212;27;20345;-44
2023/07/20 02:34:10;;;;;;;;;;;14.60;99.90;;;;;;5155299;27;19919;-45
2023/07/20 02:36:35;;;;;;;;;;;14.60;99.90;;;;;;5158258;27;19990;-44
2023/07/20 02:39:03;;;;;;;;;;;14.50;99.90;;;;;;5158214;27;19968;-46
2023/07/20 02:41:30;;;;;;;;;;;14.50;99.90;;;;;;5157183;27;20007;-47
2023/07/20 02:43:56;;;;;;;;;;;14.40;99.90;;;;;;5158094;27;20377;-45
2023/07/20 02:46:22;;;;;;;;;;;14.50;99.90;;;;;;5158073;27;19999;-44
2023/07/20 02:48:47;;;;;;;;;;;14.40;99.90;;;;;;5157286;27;19994;-44
2023/07/20 02:51:13;;;;;;;;;;;14.40;99.90;;;;;;5158016;27;19911;-46
2023/07/20 02:53:38;;;;;;;;;;;14.40;99.90;;;;;;5158025;27;20350;-45
2023/07/20 02:56:04;;;;;;;;;;;14.40;99.90;;;;;;5133139;27;19923;-45
2023/07/20 02:58:29;;;;;;;;;;;14.40;99.90;;;;;;5126512;27;19916;-45
2023/07/20 03:00:55;;;;;;;;;;;14.50;99.90;;;;;;5122010;27;19965;-47
2023/07/20 03:03:20;;;;;;;;;;;14.40;99.90;;;;;;5115525;28;20369;-46
2023/07/20 03:05:45;;;;;;;;;;;14.40;99.90;;;;;;5128971;27;19971;-45
2023/07/20 03:08:11;;;;;;;;;;;14.40;99.90;;;;;;5136907;27;19908;-45
2023/07/20 03:10:43;;;;;;;;;;;14.40;99.90;;;;;;5136205;27;19914;-46
2023/07/20 03:13:08;;;;;;;;;;;14.30;99.90;;;;;;5136790;27;19915;-45
2023/07/20 03:15:34;;;;;;;;;;;14.30;99.90;;;;;;5136900;27;20376;-44
2023/07/20 03:17:59;;;;;;;;;;;14.30;99.90;;;;;;5131270;27;20362;-44
2023/07/20 03:20:25;;;;;;;;;;;14.20;99.90;;;;;;5122061;27;19915;-45
2023/07/20 03:22:51;;;;;;;;;;;14.20;99.90;;;;;;5135768;27;20326;-43
2023/07/20 03:25:17;;;;;;;;;;;14.20;99.90;;;;;;5135715;27;21107;-46
2023/07/20 03:27:43;;;;;;;;;;;14.20;99.90;;;;;;5136667;27;20010;-44
2023/07/20 03:30:09;;;;;;;;;;;14.20;99.90;;;;;;5124233;27;20003;-44
2023/07/20 03:32:35;;;;;;;;;;;14.10;99.90;;;;;;5115099;28;20275;-44
2023/07/20 03:35:00;;;;;;;;;;;14.10;99.90;;;;;;5115759;28;20396;-45
2023/07/20 03:37:26;;;;;;;;;;;14.10;99.90;;;;;;5115102;28;20006;-45
2023/07/20 03:39:51;;;;;;;;;;;14.10;99.90;;;;;;5115750;28;19914;-45
2023/07/20 03:42:17;;;;;;;;;;;14.00;99.90;;;;;;5115425;28;19931;-46
2023/07/20 03:44:42;;;;;;;;;;;14.00;99.90;;;;;;5121120;27;19951;-49
2023/07/20 03:47:10;;;;;;;;;;;13.90;99.90;;;;;;5134998;27;20234;-45
2023/07/20 03:49:35;;;;;;;;;;;13.80;99.90;;;;;;5136175;27;19908;-45
2023/07/20 03:52:03;;;;;;;;;;;13.80;99.90;;;;;;5118516;27;19908;-44
2023/07/20 03:54:28;;;;;;;;;;;13.90;99.90;;;;;;5117777;27;19923;-43
2023/07/20 03:56:54;;;;;;;;;;;13.80;99.90;;;;;;5120516;27;20320;-45
2023/07/20 03:59:19;;;;;;;;;;;13.80;99.90;;;;;;5114644;28;19908;-45
2023/07/20 04:01:45;;;;;;;;;;;13.70;99.90;;;;;;5122770;27;19964;-45
2023/07/20 04:04:10;;;;;;;;;;;13.70;99.90;;;;;;5133971;27;19908;-43
2023/07/20 04:06:36;;;;;;;;;;;13.70;99.90;;;;;;5118132;27;19912;-46
2023/07/20 04:09:02;;;;;;;;;;;13.70;99.90;;;;;;5115274;28;20381;-44
2023/07/20 04:11:28;;;;;;;;;;;13.60;99.90;;;;;;5115262;28;19914;-45
2023/07/20 04:13:53;;;;;;;;;;;13.60;99.90;;;;;;5114339;28;20324;-45
2023/07/20 04:16:20;;;;;;;;;;;13.50;99.90;;;;;;5135098;27;19911;-45
2023/07/20 04:18:45;;;;;;;;;;;13.50;99.90;;;;;;5124411;27;19912;-45
2023/07/20 04:21:10;;;;;;;;;;;13.50;99.90;;;;;;5113884;28;19914;-46
2023/07/20 04:23:36;;;;;;;;;;;13.50;99.90;;;;;;5134054;27;19908;-45
2023/07/20 04:26:02;;;;;;;;;;;13.50;99.90;;;;;;5151912;27;20358;-45
2023/07/20 04:28:27;;;;;;;;;;;13.50;99.90;;;;;;5155454;27;19907;-45
2023/07/20 04:30:53;;;;;;;;;;;13.50;99.90;;;;;;5150323;27;20418;-44
2023/07/20 04:33:19;;;;;;;;;;;13.60;99.90;;;;;;5135095;27;19919;-43
2023/07/20 04:35:49;;;;;;;;;;;13.60;99.90;;;;;;5116571;27;19969;-46
2023/07/20 04:38:18;;;;;;;;;;;13.70;99.90;;;;;;5114563;28;19916;-50
2023/07/20 04:40:44;;;;;;;;;;;13.70;99.90;;;;;;5113531;28;20425;-44
2023/07/20 04:43:10;;;;;;;;;;;13.70;99.90;;;;;;5120888;27;19912;-45
2023/07/20 04:45:35;;;;;;;;;;;13.80;99.90;;;;;;5135218;27;19915;-44
2023/07/20 04:48:01;;;;;;;;;;;13.80;99.90;;;;;;5134057;27;20430;-46
2023/07/20 04:50:26;;;;;;;;;;;13.80;99.90;;;;;;5134979;27;19960;-45
2023/07/20 04:52:53;;;;;;;;;;;13.80;99.90;;;;;;5135122;27;19919;-45
2023/07/20 04:55:18;;;;;;;;;;;13.80;99.90;;;;;;5154668;27;20039;-44
2023/07/20 04:57:44;;;;;;;;;;;13.90;99.90;;;;;;5145427;27;20022;-44
2023/07/20 05:00:13;;;;;;;;;;;13.80;99.90;;;;;;5134753;27;20357;-46
2023/07/20 05:02:38;;;;;;;;;;;13.80;99.90;;;;;;5129360;27;19911;-48
2023/07/20 05:05:05;;;;;;;;;;;13.90;99.90;;;;;;5134652;27;19908;-45
2023/07/20 05:07:31;;;;;;;;;;;13.90;99.90;;;;;;5134694;27;19915;-45
2023/07/20 05:09:57;;;;;;;;;;;13.90;99.90;;;;;;5133793;27;19907;-45
2023/07/20 05:12:22;;;;;;;;;;;13.90;99.90;;;;;;5133868;27;19919;-45
2023/07/20 05:14:48;;;;;;;;;;;13.90;99.90;;;;;;5134579;27;20411;-45
2023/07/20 05:17:13;;;;;;;;;;;13.90;99.90;;;;;;5115154;27;19908;-44
2023/07/20 05:19:38;;;;;;;;;;;14.00;99.90;;;;;;5134396;27;19917;-45
2023/07/20 05:22:05;;;;;;;;;;;14.00;99.90;;;;;;5125290;27;19919;-44
2023/07/20 05:24:30;;;;;;;;;;;14.00;99.90;;;;;;5113190;28;19954;-45
2023/07/20 05:26:57;;;;;;;;;;;14.00;99.90;;;;;;5113658;28;19955;-44
2023/07/20 05:29:23;;;;;;;;;;;14.00;99.90;;;;;;5113684;28;19961;-45
2023/07/20 05:31:48;;;;;;;;;;;14.00;99.90;;;;;;5115607;27;19912;-45
2023/07/20 05:34:13;;;;;;;;;;;14.10;99.90;;;;;;5113172;28;19942;-45
2023/07/20 05:36:39;;;;;;;;;;;14.10;99.90;;;;;;5118625;27;19911;-45
2023/07/20 05:39:05;;;;;;;;;;;14.10;99.90;;;;;;5127282;27;19926;-44
2023/07/20 05:41:30;;;;;;;;;;;14.10;99.90;;;;;;5113208;28;19919;-44
2023/07/20 05:43:56;;;;;;;;;;;14.10;99.90;;;;;;5115130;27;20158;-43
2023/07/20 05:46:21;;;;;;;;;;;14.20;99.90;;;;;;5121340;27;20004;-45
2023/07/20 05:48:47;;;;;;;;;;;14.20;99.90;;;;;;5113445;28;19972;-44
2023/07/20 05:51:12;;;;;;;;;;;14.30;99.90;;;;;;5121657;27;20433;-45
2023/07/20 05:53:38;;;;;;;;;;;14.30;99.90;;;;;;5133888;27;20169;-45
2023/07/20 05:56:04;;;;;;;;;;;14.30;99.90;;;;;;5133736;27;19908;-45
2023/07/20 05:58:29;;;;;;;;;;;14.40;99.90;;;;;;5133072;27;19914;-44
2023/07/20 06:00:55;;;;;;;;;;;14.40;99.90;;;;;;5133360;27;19918;-44
2023/07/20 06:03:22;;;;;;;;;;;14.50;99.90;;;;;;5133664;27;19911;-47
2023/07/20 06:05:47;;;;;;;;;;;14.50;99.90;;;;;;5132800;28;20021;-45
2023/07/20 06:08:12;;;;;;;;;;;14.60;99.90;;;;;;5133069;27;20495;-45
2023/07/20 06:10:38;;;;;;;;;;;14.60;99.90;;;;;;5120989;28;19908;-45
2023/07/20 06:13:04;;;;;;;;;;;14.70;99.90;;;;;;5116263;28;20423;-46
2023/07/20 06:15:35;;;;;;;;;;;14.70;99.90;;;;;;5113406;27;19926;-46
2023/07/20 06:18:01;;;;;;;;;;;14.70;99.90;;;;;;5118692;28;20270;-48
2023/07/20 06:20:26;;;;;;;;;;;14.70;99.90;;;;;;5132086;28;19914;-47
2023/07/20 06:22:52;;;;;;;;;;;14.80;99.90;;;;;;5130535;28;19913;-45
2023/07/20 06:25:17;;;;;;;;;;;14.80;99.90;;;;;;5133574;28;20273;-45
2023/07/20 06:27:44;;;;;;;;;;;14.80;99.90;;;;;;5132652;28;19959;-46
2023/07/20 06:30:10;;;;;;;;;;;14.90;99.90;;;;;;5133355;28;19939;-45
2023/07/20 06:32:35;;;;;;;;;;;15.00;99.90;;;;;;5128566;28;19920;-44
2023/07/20 06:35:01;;;;;;;;;;;15.10;99.90;;;;;;5122748;28;20281;-44
2023/07/20 06:37:26;;;;;;;;;;;15.20;99.90;;;;;;5118590;28;19954;-44
2023/07/20 06:39:52;;;;;;;;;;;15.30;99.90;;;;;;5126801;28;19908;-46
2023/07/20 06:42:17;;;;;;;;;;;15.40;99.90;;;;;;5120566;28;19942;-45
2023/07/20 06:44:43;;;;;;;;;;;15.50;99.90;;;;;;5128389;28;19911;-44
2023/07/20 06:47:08;;;;;;;;;;;15.50;99.90;;;;;;5124674;27;19917;-46
2023/07/20 06:49:34;;;;;;;;;;;15.60;99.90;;;;;;5116431;27;19919;-45
2023/07/20 06:51:59;;;;;;;;;;;15.70;99.90;;;;;;5139619;27;20376;-45
2023/07/20 06:54:25;;;;;;;;;;;15.70;99.90;;;;;;5142462;27;19931;-45
2023/07/20 06:56:51;;;;;;;;;;;15.80;99.90;;;;;;5137638;27;20346;-44
2023/07/20 06:59:16;;;;;;;;;;;15.80;99.90;;;;;;5136135;27;19958;-44
2023/07/20 07:01:42;;;;;;;;;;;15.80;99.90;;;;;;5137725;27;19912;-45
2023/07/20 07:04:07;;;;;;;;;;;15.80;99.90;;;;;;5132966;27;19975;-45
2023/07/20 07:06:33;;;;;;;;;;;15.80;99.90;;;;;;5133325;28;19998;-47
2023/07/20 07:08:58;;;;;;;;;;;15.90;99.90;;;;;;5126529;28;19919;-47
2023/07/20 07:11:24;;;;;;;;;;;15.90;99.90;;;;;;5128747;27;19937;-45
2023/07/20 07:13:51;;;;;;;;;;;16.00;99.90;;;;;;5128795;27;19925;-45
2023/07/20 07:16:18;;;;;;;;;;;15.90;99.90;;;;;;5136024;27;20285;-44
2023/07/20 07:18:44;;;;;;;;;;;16.00;99.90;;;;;;5122908;27;19912;-45
2023/07/20 07:21:10;;;;;;;;;;;16.00;99.90;;;;;;5127513;27;19912;-44
2023/07/20 07:23:38;;;;;;;;;;;16.00;99.90;;;;;;5123589;27;20270;-45
2023/07/20 07:26:03;;;;;;;;;;;16.10;99.90;;;;;;5117226;27;19920;-44
2023/07/20 07:28:29;;;;;;;;;;;16.20;99.90;;;;;;5135572;27;19970;-45
2023/07/20 07:30:55;;;;;;;;;;;16.20;99.90;;;;;;5153353;27;20365;-46
2023/07/20 07:33:20;;;;;;;;;;;16.30;99.90;;;;;;5144915;27;19941;-46
2023/07/20 07:35:46;;;;;;;;;;;16.30;99.90;;;;;;5138574;27;19911;-46
2023/07/20 07:38:11;;;;;;;;;;;16.40;99.90;;;;;;5136549;27;19919;-44
2023/07/20 07:40:37;;;;;;;;;;;16.40;99.90;;;;;;5128100;27;19919;-46
2023/07/20 07:43:03;;;;;;;;;;;16.50;99.90;;;;;;5144050;27;19915;-44
2023/07/20 07:45:28;;;;;;;;;;;16.70;99.90;;;;;;5144115;27;19912;-46
2023/07/20 07:47:54;;;;;;;;;;;16.80;99.90;;;;;;5146148;27;19965;-45
2023/07/20 07:50:19;;;;;;;;;;;16.90;99.90;;;;;;5148047;27;19911;-44
2023/07/20 07:52:45;;;;;;;;;;;17.00;99.90;;;;;;5146770;27;19929;-45
2023/07/20 07:55:10;;;;;;;;;;;17.00;99.90;;;;;;5132953;27;19912;-44
2023/07/20 07:57:36;;;;;;;;;;;17.10;99.90;;;;;;5124653;27;19918;-45
2023/07/20 08:00:03;;;;;;;;;;;17.20;99.90;;;;;;5123968;27;19918;-45
2023/07/20 08:02:28;;;;;;;;;;;17.30;99.90;;;;;;5127380;27;19955;-45
2023/07/20 08:04:54;;;;;;;;;;;17.20;99.90;;;;;;5129602;27;19947;-43
2023/07/20 08:07:19;;;;;;;;;;;17.20;99.90;;;;;;5133734;27;19970;-45
2023/07/20 08:09:45;;;;;;;;;;;17.20;99.90;;;;;;5128500;27;19916;-47
2023/07/20 08:12:10;;;;;;;;;;;17.20;99.90;;;;;;5126780;27;19911;-44
2023/07/20 08:14:36;;;;;;;;;;;17.30;99.90;;;;;;5130899;27;20384;-45
2023/07/20 08:17:01;;;;;;;;;;;17.40;99.90;;;;;;5122058;27;19912;-44
2023/07/20 08:19:27;;;;;;;;;;;17.50;99.90;;;;;;5134821;27;19934;-44
2023/07/20 08:21:52;;;;;;;;;;;17.60;99.90;;;;;;5131410;27;19955;-43
2023/07/20 08:24:18;;;;;;;;;;;17.60;99.90;;;;;;5142021;27;20407;-43
2023/07/20 08:26:43;;;;;;;;;;;17.70;99.90;;;;;;5133757;27;19915;-45
2023/07/20 08:29:09;;;;;;;;;;;17.90;99.90;;;;;;5152365;27;19943;-47
2023/07/20 08:31:34;;;;;;;;;;;18.00;99.90;;;;;;5141135;27;19914;-44
2023/07/20 08:34:00;;;;;;;;;;;18.20;99.90;;;;;;5144893;27;20019;-44
2023/07/20 08:36:26;;;;;;;;;;;18.20;99.90;;;;;;5120056;27;19919;-47
2023/07/20 08:38:51;;;;;;;;;;;18.20;99.90;;;;;;5128697;27;19911;-45
2023/07/20 08:41:17;;;;;;;;;;;18.20;99.90;;;;;;5130179;27;19974;-46
2023/07/20 08:43:43;;;;;;;;;;;18.20;99.90;;;;;;5135891;27;19927;-44
2023/07/20 08:46:10;;;;;;;;;;;18.30;99.90;;;;;;5130621;27;19959;-45
2023/07/20 08:48:36;;;;;;;;;;;18.40;99.90;;;;;;5127354;27;19916;-43
2023/07/20 08:51:04;;;;;;;;;;;18.50;99.90;;;;;;5134862;27;19914;-44
2023/07/20 08:53:31;;;;;;;;;;;18.50;99.90;;;;;;5122975;27;20034;-44
2023/07/20 08:55:57;;;;;;;;;;;18.30;99.90;;;;;;5128873;27;19918;-44
2023/07/20 08:58:23;;;;;;;;;;;18.10;99.90;;;;;;5133127;27;19954;-47
2023/07/20 09:00:50;;;;;;;;;;;18.00;99.90;;;;;;5126542;27;19944;-45
2023/07/20 09:03:15;;;;;;;;;;;18.00;99.90;;;;;;5114015;28;20118;-44
2023/07/20 09:05:41;;;;;;;;;;;18.10;99.90;;;;;;5127547;27;20366;-44
2023/07/20 09:08:07;;;;;;;;;;;18.10;99.90;;;;;;5130880;27;19915;-44
2023/07/20 09:10:32;;;;;;;;;;;18.30;99.90;;;;;;5138436;27;19915;-45
2023/07/20 09:12:58;;;;;;;;;;;18.40;99.90;;;;;;5145758;27;19956;-45
2023/07/20 09:15:24;;;;;;;;;;;18.50;99.90;;;;;;5141438;27;19963;-48
2023/07/20 09:17:50;;;;;;;;;;;18.70;99.90;;;;;;5140542;27;19911;-44
2023/07/20 09:20:16;;;;;;;;;;;18.70;99.90;;;;;;5145386;27;19920;-43
2023/07/20 09:22:42;;;;;;;;;;;18.70;99.90;;;;;;5136949;27;19964;-45
2023/07/20 09:25:12;;;;;;;;;;;18.70;99.90;;;;;;5131475;27;20327;-45
2023/07/20 09:27:38;;;;;;;;;;;18.80;99.90;;;;;;5121046;27;19911;-43
2023/07/20 09:30:07;;;;;;;;;;;18.90;99.90;;;;;;5127625;27;19922;-44
2023/07/20 09:32:38;;;;;;;;;;;18.90;99.90;;;;;;5135308;27;19927;-45
2023/07/20 09:35:04;;;;;;;;;;;19.00;99.90;;;;;;5118801;27;19911;-44
2023/07/20 09:37:32;;;;;;;;;;;19.10;99.90;;;;;;5129017;27;19911;-46
2023/07/20 09:39:58;;;;;;;;;;;19.20;99.90;;;;;;5130386;27;20002;-48
2023/07/20 09:42:25;;;;;;;;;;;19.30;99.90;;;;;;5144106;27;20001;-45
2023/07/20 09:44:50;;;;;;;;;;;19.40;99.90;;;;;;5140876;27;19911;-44
2023/07/20 09:47:21;;;;;;;;;;;19.50;99.90;;;;;;5134734;27;19922;-45
2023/07/20 09:49:47;;;;;;;;;;;19.50;99.90;;;;;;5124382;27;20064;-44
2023/07/20 09:52:13;;;;;;;;;;;19.50;99.90;;;;;;5114344;27;19995;-44
2023/07/20 09:54:39;;;;;;;;;;;19.60;99.90;;;;;;5123242;27;19961;-45
2023/07/20 09:57:07;;;;;;;;;;;19.60;99.90;;;;;;5113465;28;19908;-47
2023/07/20 09:59:33;;;;;;;;;;;19.60;99.90;;;;;;5116420;27;19912;-47
2023/07/20 10:02:01;;;;;;;;;;;19.60;99.90;;;;;;5153124;27;19907;-44
2023/07/20 10:04:26;;;;;;;;;;;19.70;99.90;;;;;;5116939;27;20434;-45
2023/07/20 10:06:54;;;;;;;;;;;19.90;99.90;;;;;;5113851;28;19908;-43
2023/07/20 10:09:21;;;;;;;;;;;19.90;99.90;;;;;;5119353;27;19923;-43
2023/07/20 10:11:49;;;;;;;;;;;20.00;99.90;;;;;;5133031;27;19938;-45
2023/07/20 10:14:18;;;;;;;;;;;20.00;99.90;;;;;;5155067;27;20434;-44
2023/07/20 10:16:49;;;;;;;;;;;20.00;99.90;;;;;;5153276;27;20512;-45
2023/07/20 10:19:34;;;;;;;;;;;20.10;99.90;;;;;;5119866;27;20426;-46
2023/07/20 10:22:01;;;;;;;;;;;20.20;99.90;;;;;;5124349;27;19935;-44
2023/07/20 10:24:27;;;;;;;;;;;20.20;99.90;;;;;;5134316;28;19914;-42
2023/07/20 10:26:53;;;;;;;;;;;20.30;99.20;;;;;;5126423;28;19915;-45
2023/07/20 10:29:19;;;;;;;;;;;20.30;99.90;;;;;;5130317;28;19907;-44
2023/07/20 10:31:44;;;;;;;;;;;20.30;99.30;;;;;;5134290;28;19908;-48
2023/07/20 10:34:10;;;;;;;;;;;20.30;99.90;;;;;;5128229;28;20311;-44
2023/07/20 10:36:44;;;;;;;;;;;20.30;99.90;;;;;;5119449;28;20365;-48
2023/07/20 10:39:22;;;;;;;;;;;20.30;99.90;;;;;;5139666;27;19919;-46
2023/07/20 10:41:47;;;;;;;;;;;20.30;99.90;;;;;;5135703;27;19919;-45
2023/07/20 10:44:13;;;;;;;;;;;20.40;99.90;;;;;;5131875;27;20315;-47
2023/07/20 10:46:38;;;;;;;;;;;20.40;99.90;;;;;;5126945;28;19915;-44
2023/07/20 10:49:05;;;;;;;;;;;20.60;99.90;;;;;;5113537;28;19908;-45
2023/07/20 10:51:38;;;;;;;;;;;20.80;99.90;;;;;;5113596;28;20014;-47
2023/07/20 10:54:07;;;;;;;;;;;20.80;99.90;;;;;;5140704;27;19938;-45
2023/07/20 10:56:32;;;;;;;;;;;20.80;99.90;;;;;;5123169;27;19944;-46
2023/07/20 10:58:59;;;;;;;;;;;20.80;99.50;;;;;;5123311;27;20316;-49
2023/07/20 11:01:30;;;;;;;;;;;20.90;99.90;;;;;;5128230;27;20265;-45
2023/07/20 11:03:57;;;;;;;;;;;20.90;99.90;;;;;;5126912;27;20259;-45
2023/07/20 11:06:25;;;;;;;;;;;20.80;99.90;;;;;;5128352;27;19919;-44
2023/07/20 11:09:16;;;;;;;;;;;20.80;99.90;;;;;;5136206;27;19914;-45
2023/07/20 11:11:46;;;;;;;;;;;20.70;99.90;;;;;;5121527;27;19923;-45
2023/07/20 11:14:22;;;;;;;;;;;20.60;99.90;;;;;;5136323;27;20366;-44
2023/07/20 11:16:48;;;;;;;;;;;20.50;99.90;;;;;;5136039;27;20277;-46
2023/07/20 11:19:18;;;;;;;;;;;20.50;99.90;;;;;;5121870;27;20041;-44
2023/07/20 11:21:44;;;;;;;;;;;20.50;99.90;;;;;;5123251;27;19918;-46
2023/07/20 11:24:10;;;;;;;;;;;20.50;99.90;;;;;;5126501;27;19919;-48
2023/07/20 11:26:41;;;;;;;;;;;20.50;99.90;;;;;;5137444;27;19912;-44
2023/07/20 11:29:07;;;;;;;;;;;20.50;99.90;;;;;;5150638;27;20351;-46
2023/07/20 11:31:37;;;;;;;;;;;20.50;99.90;;;;;;5122544;27;19919;-45
2023/07/20 11:34:02;;;;;;;;;;;20.40;99.90;;;;;;5131201;27;19968;-44
2023/07/20 11:36:28;;;;;;;;;;;20.30;99.90;;;;;;5133854;27;19958;-44
2023/07/20 11:38:53;;;;;;;;;;;20.20;99.90;;;;;;5129740;27;19912;-49
2023/07/20 11:41:19;;;;;;;;;;;20.10;99.90;;;;;;5129939;27;19934;-48
2023/07/20 11:43:45;;;;;;;;;;;20.00;99.90;;;;;;5147237;27;19911;-45
2023/07/20 11:46:11;;;;;;;;;;;20.00;99.90;;;;;;5147786;27;20269;-44
2023/07/20 11:48:36;;;;;;;;;;;20.00;99.90;;;;;;5138392;27;19919;-46
2023/07/20 11:51:02;;;;;;;;;;;20.10;99.90;;;;;;5124442;27;20349;-46
2023/07/20 11:53:27;;;;;;;;;;;20.20;99.90;;;;;;5131431;27;20095;-44
2023/07/20 11:55:53;;;;;;;;;;;20.40;99.90;;;;;;5136312;27;19960;-46
2023/07/20 11:58:19;;;;;;;;;;;20.70;99.90;;;;;;5135767;27;20521;-45
2023/07/20 12:00:44;;;;;;;;;;;20.70;99.90;;;;;;5132610;27;19907;-44
2023/07/20 12:03:12;;;;;;;;;;;20.60;99.90;;;;;;5129262;27;19911;-45
2023/07/20 12:05:38;;;;;;;;;;;20.40;99.90;;;;;;5135290;27;19913;-47
2023/07/20 12:08:04;;;;;;;;;;;20.30;99.90;;;;;;5128904;27;19915;-44
2023/07/20 12:10:29;;;;;;;;;;;20.20;99.90;;;;;;5120754;27;19968;-49
2023/07/20 12:13:00;;;;;;;;;;;20.00;99.90;;;;;;5126322;27;19920;-45
2023/07/20 12:15:26;;;;;;;;;;;20.00;99.90;;;;;;5114514;27;19912;-45
2023/07/20 12:17:53;;;;;;;;;;;19.90;99.90;;;;;;5117089;27;19934;-46
2023/07/20 12:20:36;;;;;;;;;;;19.90;99.90;;;;;;5115819;28;19908;-43
2023/07/20 12:23:05;;;;;;;;;;;20.00;99.90;;;;;;5115663;28;20510;-44
2023/07/20 12:25:38;;;;;;;;;;;20.00;99.90;;;;;;5116004;27;19969;-44
2023/07/20 12:28:08;;;;;;;;;;;20.00;99.90;;;;;;5136152;27;19908;-43
2023/07/20 12:30:33;;;;;;;;;;;20.00;99.90;;;;;;5120590;27;19911;-43
2023/07/20 12:32:59;;;;;;;;;;;20.00;99.90;;;;;;5117316;27;19926;-45
2023/07/20 12:35:24;;;;;;;;;;;20.00;99.90;;;;;;5122128;27;19920;-44
2023/07/20 12:37:51;;;;;;;;;;;20.00;99.90;;;;;;5122338;27;20399;-47
2023/07/20 12:40:17;;;;;;;;;;;20.00;99.90;;;;;;5120238;27;19938;-44
2023/07/20 12:42:42;;;;;;;;;;;20.10;99.90;;;;;;5123687;27;20281;-44
2023/07/20 12:45:08;;;;;;;;;;;20.10;99.90;;;;;;5117339;27;19920;-45
2023/07/20 12:47:33;;;;;;;;;;;20.20;99.90;;;;;;5116885;27;19951;-43
2023/07/20 12:49:59;;;;;;;;;;;20.30;99.90;;;;;;5119406;27;20350;-44
2023/07/20 12:52:25;;;;;;;;;;;20.40;99.90;;;;;;5126083;27;19911;-45
2023/07/20 12:54:51;;;;;;;;;;;20.40;99.90;;;;;;5127531;27;19916;-48
2023/07/20 12:57:16;;;;;;;;;;;20.50;99.90;;;;;;5117170;27;19926;-45
2023/07/20 12:59:42;;;;;;;;;;;20.70;99.90;;;;;;5126839;27;19911;-45
2023/07/20 13:02:07;;;;;;;;;;;20.70;99.90;;;;;;5133976;27;19950;-47
2023/07/20 13:04:33;;;;;;;;;;;20.80;99.90;;;;;;5119293;27;20384;-47
2023/07/20 13:06:59;;;;;;;;;;;20.70;99.90;;;;;;5125706;27;19918;-51
2023/07/20 13:09:25;;;;;;;;;;;20.70;99.90;;;;;;5123857;27;19952;-45
2023/07/20 13:11:51;;;;;;;;;;;20.70;99.90;;;;;;5117161;27;19968;-46
2023/07/20 13:14:16;;;;;;;;;;;20.60;99.90;;;;;;5118136;27;20362;-44
2023/07/20 13:16:42;;;;;;;;;;;20.60;99.90;;;;;;5121809;27;19919;-45
2023/07/20 13:19:08;;;;;;;;;;;20.50;99.90;;;;;;5128828;27;19922;-45
2023/07/20 13:21:33;;;;;;;;;;;20.40;99.90;;;;;;5117564;27;19911;-44
2023/07/20 13:23:59;;;;;;;;;;;20.70;99.90;;;;;;5114359;28;20376;-45
2023/07/20 13:26:24;;;;;;;;;;;20.80;99.90;;;;;;5114654;28;19908;-45
2023/07/20 13:28:50;;;;;;;;;;;20.70;99.90;;;;;;5118695;27;19919;-43
2023/07/20 13:31:17;;;;;;;;;;;20.60;99.90;;;;;;5120629;27;19919;-44
2023/07/20 13:33:42;;;;;;;;;;;20.40;99.90;;;;;;5114298;28;19923;-44
2023/07/20 13:36:08;;;;;;;;;;;20.20;99.90;;;;;;5133635;27;19911;-45
2023/07/20 13:38:33;;;;;;;;;;;20.00;99.90;;;;;;5134883;27;20426;-44
2023/07/20 13:40:59;;;;;;;;;;;19.80;99.90;;;;;;5123186;27;19920;-44
2023/07/20 13:43:25;;;;;;;;;;;19.70;99.90;;;;;;5113612;28;19908;-45
2023/07/20 13:45:50;;;;;;;;;;;19.50;99.90;;;;;;5114243;28;19908;-44
2023/07/20 13:48:19;;;;;;;;;;;19.40;99.90;;;;;;5113974;28;19916;-43
2023/07/20 13:50:44;;;;;;;;;;;19.30;99.90;;;;;;5115643;27;20002;-45
2023/07/20 13:53:10;;;;;;;;;;;19.20;99.90;;;;;;5113810;27;20056;-44
2023/07/20 13:55:36;;;;;;;;;;;19.10;99.90;;;;;;5132537;27;20154;-44
2023/07/20 13:58:02;;;;;;;;;;;19.00;99.90;;;;;;5133043;27;19908;-45
2023/07/20 14:00:32;;;;;;;;;;;18.90;99.90;;;;;;5113302;27;20386;-45
2023/07/20 14:02:58;;;;;;;;;;;18.80;99.90;;;;;;5138256;27;19907;-44
2023/07/20 14:05:24;;;;;;;;;;;18.70;99.90;;;;;;5133064;27;20006;-49
2023/07/20 14:07:50;;;;;;;;;;;18.60;99.90;;;;;;5130369;27;20404;-46
2023/07/20 14:10:15;;;;;;;;;;;18.60;99.90;;;;;;5106576;28;19916;-49
2023/07/20 14:12:41;;;;;;;;;;;18.60;99.90;;;;;;5114237;28;20370;-50